createdAt,value
2023-12-23T00:02:40.238Z,6.20
2023-12-23T00:06:48.444Z,6.80
2023-12-23T00:10:56.778Z,5.60
2023-12-23T00:15:05.052Z,5.80
2023-12-23T00:19:13.709Z,3.90
2023-12-23T00:23:22.020Z,7.00
2023-12-23T00:27:31.068Z,5.90
2023-12-23T00:31:39.775Z,5.00
2023-12-23T00:35:48.842Z,7.80
2023-12-23T00:39:56.310Z,3.10
2023-12-23T00:44:04.628Z,3.20
2023-12-23T00:48:14.878Z,2.50
2023-12-23T00:52:23.889Z,2.20
2023-12-23T00:56:31.779Z,2.60
2023-12-23T01:00:40.435Z,1.90
2023-12-23T01:04:48.396Z,1.90
2023-12-23T01:08:56.734Z,4.00
2023-12-23T01:13:04.815Z,4.50
2023-12-23T01:17:12.826Z,2.20
2023-12-23T01:21:22.834Z,2.00
2023-12-23T01:25:30.832Z,1.60
2023-12-23T01:29:38.531Z,2.50
2023-12-23T01:33:46.545Z,1.90
2023-12-23T01:37:55.956Z,3.10
2023-12-23T01:42:06.813Z,2.00
2023-12-23T01:46:15.369Z,2.90
2023-12-23T01:50:27.076Z,2.90
2023-12-23T01:54:35.448Z,1.90
2023-12-23T01:58:43.819Z,2.20
2023-12-23T02:02:52.211Z,4.20
2023-12-23T02:07:00.397Z,2.20
2023-12-23T02:11:10.117Z,2.70
2023-12-23T02:15:20.009Z,2.30
2023-12-23T02:19:27.795Z,2.70
2023-12-23T02:23:37.077Z,2.90
2023-12-23T02:27:51.446Z,3.30
2023-12-23T02:32:00.694Z,3.10
2023-12-23T02:36:09.667Z,1.90
2023-12-23T02:40:18.215Z,3.90
2023-12-23T02:44:25.900Z,2.20
2023-12-23T02:48:34.029Z,2.10
2023-12-23T02:52:41.855Z,3.40
2023-12-23T02:56:50.892Z,2.10
2023-12-23T03:00:59.145Z,2.30
2023-12-23T03:05:10.100Z,2.60
2023-12-23T03:09:18.547Z,2.50
2023-12-23T03:13:26.491Z,2.30
2023-12-23T03:17:34.486Z,1.90
2023-12-23T03:21:48.046Z,2.20
2023-12-23T03:25:56.132Z,2.50
2023-12-23T03:30:05.479Z,1.70
2023-12-23T03:34:13.714Z,2.50
2023-12-23T03:38:23.473Z,2.40
2023-12-23T03:42:31.330Z,2.60
2023-12-23T03:46:39.579Z,1.60
2023-12-23T03:50:48.262Z,2.90
2023-12-23T03:54:56.072Z,2.20
2023-12-23T03:59:04.544Z,2.00
2023-12-23T04:03:12.225Z,2.40
2023-12-23T04:07:19.986Z,1.30
2023-12-23T04:11:27.623Z,1.80
2023-12-23T04:15:35.928Z,2.40
2023-12-23T04:19:43.753Z,2.50
2023-12-23T04:23:53.231Z,2.20
2023-12-23T04:28:00.901Z,2.10
2023-12-23T04:32:09.245Z,2.60
2023-12-23T04:36:18.804Z,2.80
2023-12-23T04:40:28.082Z,2.30
2023-12-23T04:44:36.356Z,1.90
2023-12-23T04:48:45.275Z,2.20
2023-12-23T04:52:53.780Z,5.10
2023-12-23T04:57:02.660Z,3.50
2023-12-23T05:01:11.080Z,1.60
2023-12-23T05:05:19.472Z,2.50
2023-12-23T05:09:27.960Z,2.10
2023-12-23T05:13:37.399Z,2.70
2023-12-23T05:17:45.444Z,1.80
2023-12-23T05:21:53.302Z,1.90
2023-12-23T05:26:01.134Z,2.30
2023-12-23T05:30:13.561Z,2.70
2023-12-23T05:34:21.772Z,8.20
2023-12-23T05:38:29.544Z,3.60
2023-12-23T05:42:37.871Z,5.20
2023-12-23T05:46:45.878Z,2.80
2023-12-23T05:50:53.771Z,3.40
2023-12-23T05:55:01.953Z,2.20
2023-12-23T05:59:09.710Z,3.40
2023-12-23T06:03:17.456Z,7.60
2023-12-23T06:07:26.507Z,2.50
2023-12-23T06:11:34.445Z,2.90
2023-12-23T06:15:42.233Z,3.80
2023-12-23T06:19:51.252Z,2.50
2023-12-23T06:24:00.277Z,4.00
2023-12-23T06:28:10.251Z,4.00
2023-12-23T06:32:18.704Z,4.70
2023-12-23T06:36:28.286Z,3.70
2023-12-23T06:40:36.878Z,6.20
2023-12-23T06:44:44.859Z,4.80
2023-12-23T06:48:52.871Z,2.60
2023-12-23T06:53:01.230Z,5.10
2023-12-23T06:57:09.996Z,4.40
2023-12-23T07:01:18.040Z,6.70
2023-12-23T07:05:26.245Z,7.10
2023-12-23T07:09:34.018Z,4.10
2023-12-23T07:13:42.298Z,4.50
2023-12-23T07:17:50.538Z,4.80
2023-12-23T07:21:58.730Z,5.80
2023-12-23T07:26:07.749Z,4.80
2023-12-23T07:30:18.082Z,6.10
2023-12-23T07:34:26.646Z,7.30
2023-12-23T07:38:35.459Z,5.10
2023-12-23T07:42:44.377Z,5.90
2023-12-23T07:46:52.034Z,5.00
2023-12-23T07:51:00.335Z,7.60
2023-12-23T07:55:09.947Z,8.80
2023-12-23T07:59:18.736Z,9.20
2023-12-23T08:03:26.708Z,6.50
2023-12-23T08:07:34.461Z,8.40
2023-12-23T08:11:42.304Z,6.10
2023-12-23T08:15:51.275Z,8.40
2023-12-23T08:19:59.120Z,10.10
2023-12-23T08:24:07.801Z,10.50
2023-12-23T08:28:16.216Z,8.40
2023-12-23T08:32:24.672Z,8.50
2023-12-23T08:36:32.562Z,6.70
2023-12-23T08:40:40.394Z,10.70
2023-12-23T08:44:48.081Z,5.80
2023-12-23T08:48:56.114Z,10.40
2023-12-23T08:53:05.117Z,9.80
2023-12-23T08:57:13.235Z,10.50
2023-12-23T09:01:21.078Z,11.10
2023-12-23T09:05:28.839Z,10.80
2023-12-23T09:09:37.090Z,7.00
2023-12-23T09:13:45.381Z,9.10
2023-12-23T09:17:53.646Z,12.80
2023-12-23T09:22:05.407Z,8.50
2023-12-23T09:26:15.407Z,7.30
2023-12-23T09:30:23.429Z,8.50
2023-12-23T09:34:31.343Z,9.70
2023-12-23T09:38:39.118Z,6.10
2023-12-23T09:42:47.459Z,7.00
2023-12-23T09:46:55.221Z,8.20
2023-12-23T09:51:03.566Z,9.40
2023-12-23T09:55:13.945Z,7.90
2023-12-23T09:59:22.190Z,5.30
2023-12-23T10:03:30.640Z,6.50
2023-12-23T10:07:38.166Z,6.60
2023-12-23T10:11:46.041Z,6.40
2023-12-23T10:15:53.991Z,6.80
2023-12-23T10:20:01.767Z,9.60
2023-12-23T10:24:10.536Z,9.00
2023-12-23T10:28:20.158Z,5.40
2023-12-23T10:32:30.577Z,6.80
2023-12-23T10:36:38.911Z,7.80
2023-12-23T10:40:48.376Z,5.50
2023-12-23T10:44:57.407Z,5.60
2023-12-23T10:49:05.493Z,5.90
2023-12-23T10:53:16.823Z,5.80
2023-12-23T10:57:25.376Z,5.70
2023-12-23T11:01:50.589Z,6.30
2023-12-23T11:05:59.001Z,4.50
2023-12-23T11:10:09.372Z,3.90
2023-12-23T11:14:17.172Z,3.70
2023-12-23T11:18:25.948Z,3.30
2023-12-23T11:22:38.748Z,4.70
2023-12-23T11:26:52.869Z,4.70
2023-12-23T11:31:01.428Z,5.10
2023-12-23T11:35:13.185Z,7.40
2023-12-23T11:39:21.380Z,5.60
2023-12-23T11:43:28.975Z,5.80
2023-12-23T11:47:36.822Z,6.90
2023-12-23T11:51:44.908Z,7.00
2023-12-23T11:55:53.967Z,9.20
2023-12-23T12:00:03.300Z,7.10
2023-12-23T12:04:11.555Z,6.40
2023-12-23T12:08:19.517Z,8.20
2023-12-23T12:12:27.230Z,7.80
2023-12-23T12:16:35.781Z,4.80
2023-12-23T12:20:45.977Z,6.10
2023-12-23T12:24:53.705Z,5.10
2023-12-23T12:29:02.211Z,5.70
2023-12-23T12:33:12.882Z,4.00
2023-12-23T12:37:22.460Z,5.70
2023-12-23T12:41:30.631Z,5.80
2023-12-23T12:45:43.146Z,6.10
2023-12-23T12:49:59.686Z,5.80
2023-12-23T12:54:13.555Z,8.90
2023-12-23T12:58:23.167Z,11.30
2023-12-23T13:02:30.979Z,8.20
2023-12-23T13:06:38.861Z,7.20
2023-12-23T13:10:48.216Z,5.50
2023-12-23T13:14:58.985Z,7.40
2023-12-23T13:19:06.806Z,4.90
2023-12-23T13:23:16.422Z,4.30
2023-12-23T13:27:24.164Z,6.20
2023-12-23T13:31:32.808Z,6.80
2023-12-23T13:35:40.610Z,4.60
2023-12-23T13:39:50.435Z,4.70
2023-12-23T13:43:58.265Z,4.60
2023-12-23T13:48:06.645Z,5.00
2023-12-23T13:52:14.389Z,5.90
2023-12-23T13:56:22.157Z,7.50
2023-12-23T14:00:29.896Z,9.30
2023-12-23T14:04:38.116Z,8.60
2023-12-23T14:08:47.320Z,8.80
2023-12-23T14:12:55.269Z,7.80
2023-12-23T14:17:07.578Z,6.40
2023-12-23T14:21:17.020Z,6.80
2023-12-23T14:25:24.847Z,7.30
2023-12-23T14:29:32.744Z,8.30
2023-12-23T14:33:43.321Z,10.10
2023-12-23T14:37:51.700Z,13.30
2023-12-23T14:41:59.627Z,19.20
2023-12-23T14:46:07.897Z,18.90
2023-12-23T14:50:20.155Z,19.30
2023-12-23T14:54:27.913Z,17.90
2023-12-23T14:58:35.859Z,13.60
2023-12-23T15:02:45.060Z,13.40
2023-12-23T15:06:52.965Z,9.90
2023-12-23T15:11:01.101Z,11.00
2023-12-23T15:15:11.271Z,9.70
2023-12-23T15:19:19.209Z,9.60
2023-12-23T15:23:27.327Z,12.80
2023-12-23T15:27:35.243Z,12.80
2023-12-23T15:31:43.506Z,8.30
2023-12-23T15:35:51.025Z,7.40
2023-12-23T15:39:58.830Z,6.50
2023-12-23T15:44:06.959Z,6.50
2023-12-23T15:48:15.058Z,5.80
2023-12-23T15:52:22.717Z,15.30
2023-12-23T15:56:30.462Z,15.40
2023-12-23T16:00:38.644Z,12.70
2023-12-23T16:04:47.358Z,12.10
2023-12-23T16:08:55.036Z,10.70
2023-12-23T16:13:03.354Z,9.20
2023-12-23T16:17:12.820Z,6.10
2023-12-23T16:21:20.835Z,9.20
2023-12-23T16:25:29.577Z,11.60
2023-12-23T16:29:37.090Z,8.90
2023-12-23T16:33:45.204Z,9.00
2023-12-23T16:37:53.339Z,9.40
2023-12-23T16:42:01.058Z,8.10
2023-12-23T16:46:09.529Z,10.40
2023-12-23T16:50:17.864Z,8.00
2023-12-23T16:54:25.710Z,9.20
2023-12-23T16:58:34.114Z,8.50
2023-12-23T17:02:42.562Z,10.00
2023-12-23T17:06:50.452Z,10.40
2023-12-23T17:10:58.502Z,10.60
2023-12-23T17:15:08.201Z,10.60
2023-12-23T17:19:17.573Z,7.60
2023-12-23T17:23:26.718Z,7.30
2023-12-23T17:27:34.722Z,9.30
2023-12-23T17:31:43.229Z,8.60
2023-12-23T17:35:51.599Z,8.40
2023-12-23T17:39:59.485Z,10.80
2023-12-23T17:44:07.977Z,12.20
2023-12-23T17:48:15.772Z,12.70
2023-12-23T17:52:23.728Z,9.40
2023-12-23T17:56:32.254Z,11.20
2023-12-23T18:00:40.142Z,10.10
2023-12-23T18:04:48.474Z,9.20
2023-12-23T18:08:56.355Z,9.00
2023-12-23T18:13:09.081Z,9.30
2023-12-23T18:17:16.874Z,9.00
2023-12-23T18:21:25.435Z,9.60
2023-12-23T18:25:33.439Z,9.20
2023-12-23T18:29:41.037Z,12.50
2023-12-23T18:33:49.175Z,12.10
2023-12-23T18:37:57.835Z,11.30
2023-12-23T18:42:06.020Z,9.70
2023-12-23T18:46:14.618Z,8.20
2023-12-23T18:50:23.497Z,10.30
2023-12-23T18:54:31.349Z,10.80
2023-12-23T18:58:39.271Z,9.10
2023-12-23T19:02:48.114Z,9.70
2023-12-23T19:06:56.172Z,13.20
2023-12-23T19:11:04.076Z,9.40
2023-12-23T19:15:13.497Z,10.70
2023-12-23T19:19:21.427Z,11.70
2023-12-23T19:23:29.359Z,8.90
2023-12-23T19:27:37.371Z,8.90
2023-12-23T19:31:45.144Z,9.60
2023-12-23T19:35:52.721Z,8.00
2023-12-23T19:40:06.843Z,11.10
2023-12-23T19:44:19.402Z,11.60
2023-12-23T19:48:27.394Z,9.60
2023-12-23T19:52:35.704Z,9.80
2023-12-23T19:56:44.259Z,10.40
2023-12-23T20:00:52.328Z,13.30
2023-12-23T20:05:00.600Z,10.80
2023-12-23T20:09:08.420Z,10.00
2023-12-23T20:13:16.057Z,8.80
2023-12-23T20:17:24.043Z,8.30
2023-12-23T20:21:32.017Z,9.70
2023-12-23T20:25:40.538Z,10.90
2023-12-23T20:29:48.888Z,8.80
2023-12-23T20:33:56.948Z,9.00
2023-12-23T20:38:05.465Z,8.30
2023-12-23T20:42:14.051Z,6.30
2023-12-23T20:46:22.178Z,5.70
2023-12-23T20:50:30.645Z,6.60
2023-12-23T20:54:41.936Z,6.20
2023-12-23T20:58:49.941Z,6.20
2023-12-23T21:02:58.047Z,6.30
2023-12-23T21:07:09.374Z,5.60
2023-12-23T21:11:18.186Z,6.00
2023-12-23T21:15:26.771Z,8.10
2023-12-23T21:19:34.586Z,7.60
2023-12-23T21:23:42.969Z,6.50
2023-12-23T21:27:50.780Z,7.10
2023-12-23T21:31:59.131Z,6.80
2023-12-23T21:36:08.159Z,7.50
2023-12-23T21:40:17.317Z,9.00
2023-12-23T21:44:25.528Z,9.70
2023-12-23T21:48:33.871Z,6.80
2023-12-23T21:52:46.192Z,7.90
2023-12-23T21:56:54.153Z,7.60
2023-12-23T22:01:02.397Z,6.50
2023-12-23T22:05:12.406Z,7.20
2023-12-23T22:09:20.423Z,6.60
2023-12-23T22:13:29.023Z,5.30
2023-12-23T22:17:37.053Z,7.50
2023-12-23T22:21:45.035Z,5.40
2023-12-23T22:25:52.759Z,7.30
2023-12-23T22:30:01.149Z,5.20
2023-12-23T22:34:09.244Z,7.00
2023-12-23T22:38:16.788Z,4.50
2023-12-23T22:42:25.204Z,5.20
2023-12-23T22:46:32.860Z,5.90
2023-12-23T22:50:40.930Z,5.50
2023-12-23T22:54:50.374Z,5.30
2023-12-23T22:58:58.562Z,4.70
2023-12-23T23:03:06.822Z,5.80
2023-12-23T23:07:15.013Z,5.30
2023-12-23T23:11:23.013Z,5.50
2023-12-23T23:15:30.784Z,6.10
2023-12-23T23:19:38.946Z,5.20
2023-12-23T23:23:47.331Z,5.30
2023-12-23T23:27:55.216Z,6.10
2023-12-23T23:32:03.096Z,7.90
2023-12-23T23:36:15.729Z,5.90
2023-12-23T23:40:23.971Z,8.00
2023-12-23T23:44:32.076Z,6.90
2023-12-23T23:48:39.835Z,5.30
2023-12-23T23:52:47.775Z,5.70
2023-12-23T23:56:56.340Z,5.80
